Time;durP1;ratioP1;P1;durP2;ratioP2;P2;SDS_P1;SDS_P2;PMS_P1;PMS_P2;Temp;Humidity;BMP_temperature;BMP_pressure;BME280_temperature;BME280_humidity;BME280_pressure;Samples;Min_cycle;Max_cycle;Signal;HPM_P1;HPM_P2
2022/04/11 00:03:46;;;;;;;;;3.50;3.50;;;;;;;;2;279077769;279077769;-77
2022/04/11 00:12:01;;;;;;;;;3.50;3.50;;;;;;;;2;234067923;234067923;-77
2022/04/11 00:21:02;;;;;;;;;5.00;5.00;;;;;;;;2;279080844;279080844;-77
2022/04/11 00:29:17;;;;;;;;;2.00;2.00;;;;;;;;2;234068890;234068890;-76
2022/04/11 00:38:18;;;;;;;;;0.50;0.50;;;;;;;;2;279079199;279079199;-76
2022/04/11 00:46:33;;;;;;;;;6.50;6.50;;;;;;;;2;234067518;234067518;-76
2022/04/11 01:05:43;;;;;;;;;6.00;6.00;;;;;;;;175453;28;261077656;-76
2022/04/11 01:14:44;;;;;;;;;4.00;4.00;;;;;;;;2;261080694;261080694;-76
2022/04/11 01:22:59;;;;;;;;;5.50;5.50;;;;;;;;2;261077408;261077408;-76
2022/04/11 01:32:01;;;;;;;;;6.50;6.50;;;;;;;;2;261072593;261072593;-76
2022/04/11 01:40:17;;;;;;;;;6.50;6.50;;;;;;;;2;261077201;261077201;-76
2022/04/11 01:49:17;;;;;;;;;2.00;2.00;;;;;;;;2;261074272;261074272;-76
2022/04/11 01:57:33;;;;;;;;;4.50;4.50;;;;;;;;2;261080262;261080262;-76
2022/04/11 02:06:33;;;;;;;;;4.50;4.50;;;;;;;;2;261076196;261076196;-76
2022/04/11 02:14:48;;;;;;;;;1.00;1.00;;;;;;;;2;261079076;261079076;-76
2022/04/11 02:23:49;;;;;;;;;1.00;1.00;;;;;;;;2;261075416;261075416;-76
2022/04/11 02:32:05;;;;;;;;;4.00;4.00;;;;;;;;2;261078012;261078012;-76
2022/04/11 02:41:05;;;;;;;;;1.50;1.50;;;;;;;;2;261077262;261077262;-76
2022/04/11 02:49:20;;;;;;;;;2.00;2.00;;;;;;;;2;261076513;261076513;-76
2022/04/11 02:58:21;;;;;;;;;2.50;2.50;;;;;;;;2;261082848;261082848;-76
2022/04/11 03:06:36;;;;;;;;;3.50;3.50;;;;;;;;2;261079494;261079494;-77
2022/04/11 03:15:37;;;;;;;;;2.50;2.50;;;;;;;;2;261077777;261077777;-76
2022/04/11 03:23:52;;;;;;;;;2.00;2.00;;;;;;;;2;261074134;261074134;-76
2022/04/11 03:32:52;;;;;;;;;2.00;2.00;;;;;;;;2;261075063;261075063;-76
2022/04/11 03:41:08;;;;;;;;;2.50;2.50;;;;;;;;2;261073741;261073741;-77
2022/04/11 03:50:09;;;;;;;;;0.50;0.50;;;;;;;;2;261077201;261077201;-76
2022/04/11 03:58:24;;;;;;;;;1.50;1.50;;;;;;;;2;261077839;261077839;-77
2022/04/11 04:07:25;;;;;;;;;2.00;2.00;;;;;;;;2;261076882;261076882;-77
2022/04/11 04:15:40;;;;;;;;;0.50;0.50;;;;;;;;2;261076480;261076480;-77
2022/04/11 04:24:41;;;;;;;;;11.00;2.00;;;;;;;;2;261077401;261077401;-77
2022/04/11 04:32:56;;;;;;;;;0.50;0.50;;;;;;;;2;261077136;261077136;-77
2022/04/11 04:41:57;;;;;;;;;1.00;1.00;;;;;;;;2;261080944;261080944;-77
2022/04/11 04:50:12;;;;;;;;;2.50;2.50;;;;;;;;2;261076927;261076927;-77
2022/04/11 04:59:13;;;;;;;;;1.50;1.50;;;;;;;;2;261080267;261080267;-77
2022/04/11 05:07:28;;;;;;;;;13.00;2.00;;;;;;;;2;261079152;261079152;-76
2022/04/11 05:16:28;;;;;;;;;5.00;5.00;;;;;;;;2;261077094;261077094;-77
2022/04/11 05:24:44;;;;;;;;;3.50;3.50;;;;;;;;2;261075861;261075861;-77
2022/04/11 05:33:45;;;;;;;;;0.50;0.50;;;;;;;;2;261080856;261080856;-77
2022/04/11 05:42:00;;;;;;;;;2.00;2.00;;;;;;;;2;261080010;261080010;-75
2022/04/11 05:51:01;;;;;;;;;3.00;3.00;;;;;;;;2;261076225;261076225;-75
2022/04/11 05:59:16;;;;;;;;;0.00;0.00;;;;;;;;2;261081353;261081353;-75
2022/04/11 06:08:17;;;;;;;;;3.00;3.00;;;;;;;;2;261083232;261083232;-76
2022/04/11 06:16:32;;;;;;;;;0.50;0.50;;;;;;;;2;261080333;261080333;-76
2022/04/11 06:25:33;;;;;;;;;2.00;2.00;;;;;;;;2;261079615;261079615;-76
2022/04/11 06:33:48;;;;;;;;;5.00;5.00;;;;;;;;2;261076384;261076384;-75
2022/04/11 06:42:49;;;;;;;;;6.50;2.50;;;;;;;;2;261079570;261079570;-77
2022/04/11 06:51:04;;;;;;;;;16.00;7.00;;;;;;;;2;261084124;261084124;-75
2022/04/11 07:00:05;;;;;;;;;7.00;7.00;;;;;;;;2;261078719;261078719;-76
2022/04/11 07:08:20;;;;;;;;;4.50;4.50;;;;;;;;2;261079148;261079148;-76
2022/04/11 07:17:21;;;;;;;;;4.00;4.00;;;;;;;;2;261080408;261080408;-75
2022/04/11 07:25:36;;;;;;;;;5.50;5.50;;;;;;;;2;261078628;261078628;-75
2022/04/11 07:34:37;;;;;;;;;9.50;1.50;;;;;;;;2;261078970;261078970;-74
2022/04/11 07:42:52;;;;;;;;;3.00;3.00;;;;;;;;2;261077675;261077675;-75
2022/04/11 07:51:53;;;;;;;;;6.00;6.00;;;;;;;;2;261075012;261075012;-76
2022/04/11 08:00:09;;;;;;;;;3.00;3.00;;;;;;;;2;261083527;261083527;-76
2022/04/11 08:09:10;;;;;;;;;1.00;1.00;;;;;;;;2;261079937;261079937;-76
2022/04/11 08:17:26;;;;;;;;;1.00;1.00;;;;;;;;2;261076595;261076595;-76
2022/04/11 08:26:26;;;;;;;;;16.50;5.50;;;;;;;;2;261076719;261076719;-76
2022/04/11 08:34:41;;;;;;;;;3.00;3.00;;;;;;;;2;261076557;261076557;-76
2022/04/11 08:43:42;;;;;;;;;2.00;2.00;;;;;;;;2;261078932;261078932;-77
2022/04/11 08:51:58;;;;;;;;;0.00;0.00;;;;;;;;2;261075159;261075159;-77
2022/04/11 09:00:59;;;;;;;;;1.50;1.50;;;;;;;;2;261076821;261076821;-77
2022/04/11 09:09:14;;;;;;;;;3.50;3.50;;;;;;;;2;261079955;261079955;-77
2022/04/11 09:18:15;;;;;;;;;4.00;4.00;;;;;;;;2;261084274;261084274;-77
2022/04/11 09:26:30;;;;;;;;;7.50;7.50;;;;;;;;2;261079149;261079149;-77
2022/04/11 09:35:37;;;;;;;;;6.00;6.00;;;;;;;;2;261076635;261076635;-78
2022/04/11 09:43:53;;;;;;;;;7.00;7.00;;;;;;;;2;261086538;261086538;-77
2022/04/11 09:52:53;;;;;;;;;3.50;3.50;;;;;;;;2;261085936;261085936;-77
2022/04/11 10:01:09;;;;;;;;;4.00;4.00;;;;;;;;2;261074326;261074326;-76
2022/04/11 10:10:09;;;;;;;;;5.50;5.50;;;;;;;;2;261081349;261081349;-77
2022/04/11 10:18:26;;;;;;;;;0.50;0.50;;;;;;;;2;261083548;261083548;-78
2022/04/11 10:27:27;;;;;;;;;2.50;2.50;;;;;;;;2;261082963;261082963;-77
2022/04/11 10:35:43;;;;;;;;;4.00;4.00;;;;;;;;2;261078772;261078772;-77
2022/04/11 10:44:44;;;;;;;;;2.50;2.50;;;;;;;;2;261075166;261075166;-77
2022/04/11 10:53:08;;;;;;;;;3.00;3.00;;;;;;;;2;261078132;261078132;-77
2022/04/11 11:02:11;;;;;;;;;0.50;0.50;;;;;;;;2;261078126;261078126;-77
2022/04/11 11:10:37;;;;;;;;;1.00;1.00;;;;;;;;2;261074310;261074310;-77
2022/04/11 11:19:56;;;;;;;;;2.50;2.50;;;;;;;;2;261076496;261076496;-77
2022/04/11 11:28:12;;;;;;;;;1.50;1.50;;;;;;;;2;261081157;261081157;-77
2022/04/11 11:37:13;;;;;;;;;3.00;3.00;;;;;;;;2;261075538;261075538;-77
2022/04/11 11:45:29;;;;;;;;;0.50;0.50;;;;;;;;2;261079903;261079903;-77
2022/04/11 11:54:34;;;;;;;;;3.50;3.50;;;;;;;;2;261081117;261081117;-77
2022/04/11 12:12:08;;;;;;;;;4.00;4.00;;;;;;;;2;261077193;261077193;-76
2022/04/11 12:20:24;;;;;;;;;1.50;1.50;;;;;;;;2;261078359;261078359;-76
2022/04/11 12:29:26;;;;;;;;;5.50;5.50;;;;;;;;2;261076774;261076774;-77
2022/04/11 12:37:49;;;;;;;;;6.00;6.00;;;;;;;;2;261077360;261077360;-75
2022/04/11 12:46:56;;;;;;;;;5.50;5.50;;;;;;;;2;261078063;261078063;-76
2022/04/11 12:55:11;;;;;;;;;4.00;4.00;;;;;;;;2;261077607;261077607;-76
2022/04/11 13:04:11;;;;;;;;;4.50;4.50;;;;;;;;2;261076800;261076800;-77
2022/04/11 13:12:27;;;;;;;;;10.00;6.00;;;;;;;;2;261078738;261078738;-78
2022/04/11 13:21:28;;;;;;;;;7.50;7.50;;;;;;;;2;261077206;261077206;-74
2022/04/11 13:29:44;;;;;;;;;5.50;5.50;;;;;;;;2;261075199;261075199;-76
2022/04/11 13:38:44;;;;;;;;;3.50;3.50;;;;;;;;2;261077796;261077796;-76
2022/04/11 13:47:00;;;;;;;;;5.50;5.50;;;;;;;;2;261075471;261075471;-78
2022/04/11 13:56:01;;;;;;;;;4.00;4.00;;;;;;;;2;261076712;261076712;-76
2022/04/11 14:04:16;;;;;;;;;2.50;2.50;;;;;;;;2;261075770;261075770;-81
2022/04/11 14:13:17;;;;;;;;;4.50;4.50;;;;;;;;2;261075339;261075339;-78
2022/04/11 14:21:33;;;;;;;;;2.50;2.50;;;;;;;;2;261082678;261082678;-76
2022/04/11 14:30:34;;;;;;;;;2.00;2.00;;;;;;;;2;261076658;261076658;-77
2022/04/11 14:38:50;;;;;;;;;2.00;2.00;;;;;;;;2;261076877;261076877;-76
2022/04/11 14:47:50;;;;;;;;;3.00;3.00;;;;;;;;2;261075687;261075687;-77
2022/04/11 14:56:06;;;;;;;;;2.50;2.50;;;;;;;;2;261075384;261075384;-77
2022/04/11 15:05:06;;;;;;;;;0.50;0.50;;;;;;;;2;261078758;261078758;-77
2022/04/11 15:13:22;;;;;;;;;3.00;3.00;;;;;;;;2;261075726;261075726;-78
2022/04/11 15:22:27;;;;;;;;;1.00;1.00;;;;;;;;2;261076212;261076212;-78
2022/04/11 15:30:43;;;;;;;;;0.00;0.00;;;;;;;;2;261078748;261078748;-78
2022/04/11 15:39:43;;;;;;;;;1.00;1.00;;;;;;;;2;261082214;261082214;-78
2022/04/11 15:47:59;;;;;;;;;1.50;1.50;;;;;;;;2;261079473;261079473;-81
2022/04/11 15:56:59;;;;;;;;;1.50;1.50;;;;;;;;2;261084123;261084123;-79
2022/04/11 16:05:15;;;;;;;;;2.00;2.00;;;;;;;;2;261077109;261077109;-79
2022/04/11 16:14:15;;;;;;;;;3.00;3.00;;;;;;;;2;261079107;261079107;-78
2022/04/11 16:22:40;;;;;;;;;0.50;0.50;;;;;;;;2;261080881;261080881;-81
2022/04/11 16:31:40;;;;;;;;;6.50;2.50;;;;;;;;2;261078644;261078644;-79
2022/04/11 16:39:56;;;;;;;;;3.00;3.00;;;;;;;;2;261078562;261078562;-79
2022/04/11 16:48:57;;;;;;;;;2.00;2.00;;;;;;;;2;261077192;261077192;-80
2022/04/11 16:57:13;;;;;;;;;5.50;5.50;;;;;;;;2;261078394;261078394;-80
2022/04/11 17:06:14;;;;;;;;;8.50;4.00;;;;;;;;2;261079695;261079695;-79
2022/04/11 17:14:32;;;;;;;;;2.50;2.50;;;;;;;;2;261080967;261080967;-81
2022/04/11 17:23:33;;;;;;;;;5.50;5.50;;;;;;;;2;261078007;261078007;-79
2022/04/11 17:31:56;;;;;;;;;6.00;3.50;;;;;;;;2;261079779;261079779;-80
2022/04/11 17:41:26;;;;;;;;;5.50;2.00;;;;;;;;2;261077936;261077936;-80
2022/04/11 17:49:41;;;;;;;;;6.00;6.00;;;;;;;;2;261079862;261079862;-79
2022/04/11 17:58:42;;;;;;;;;3.00;3.00;;;;;;;;2;261078707;261078707;-81
2022/04/11 18:06:58;;;;;;;;;4.00;4.00;;;;;;;;2;261083409;261083409;-80
2022/04/11 18:15:58;;;;;;;;;4.50;4.50;;;;;;;;2;261083219;261083219;-79
2022/04/11 18:24:14;;;;;;;;;8.00;8.00;;;;;;;;2;261079285;261079285;-77
2022/04/11 18:33:15;;;;;;;;;7.50;7.50;;;;;;;;2;261074691;261074691;-80
2022/04/11 18:41:30;;;;;;;;;7.00;7.00;;;;;;;;2;261079556;261079556;-77
2022/04/11 18:50:30;;;;;;;;;7.00;7.00;;;;;;;;2;261078691;261078691;-78
2022/04/11 18:58:46;;;;;;;;;8.50;8.50;;;;;;;;2;261082848;261082848;-79
2022/04/11 19:07:47;;;;;;;;;9.00;9.00;;;;;;;;2;261077593;261077593;-79
2022/04/11 19:16:02;;;;;;;;;10.00;10.00;;;;;;;;2;261078655;261078655;-78
2022/04/11 19:25:05;;;;;;;;;9.00;9.00;;;;;;;;2;261076533;261076533;-78
2022/04/11 19:33:20;;;;;;;;;7.00;7.00;;;;;;;;2;261078099;261078099;-78
2022/04/11 19:42:21;;;;;;;;;4.00;4.00;;;;;;;;2;261076962;261076962;-78
2022/04/11 19:50:36;;;;;;;;;11.50;11.50;;;;;;;;2;261075920;261075920;-78
2022/04/11 19:59:37;;;;;;;;;10.50;6.50;;;;;;;;2;261080022;261080022;-78
2022/04/11 20:07:52;;;;;;;;;11.50;11.50;;;;;;;;2;261081477;261081477;-79
2022/04/11 20:16:53;;;;;;;;;11.50;6.00;;;;;;;;2;261083367;261083367;-81
2022/04/11 20:25:09;;;;;;;;;3.00;3.00;;;;;;;;2;261077087;261077087;-77
2022/04/11 20:34:10;;;;;;;;;9.00;9.00;;;;;;;;2;261086113;261086113;-77
2022/04/11 20:42:25;;;;;;;;;16.50;4.50;;;;;;;;2;261079618;261079618;-77
2022/04/11 20:51:26;;;;;;;;;3.00;3.00;;;;;;;;2;261080619;261080619;-78
2022/04/11 20:59:41;;;;;;;;;1.50;1.50;;;;;;;;2;261079170;261079170;-76
2022/04/11 21:08:42;;;;;;;;;8.00;2.50;;;;;;;;2;261077168;261077168;-76
2022/04/11 21:16:57;;;;;;;;;3.00;3.00;;;;;;;;2;261079017;261079017;-77
2022/04/11 21:25:58;;;;;;;;;7.00;7.00;;;;;;;;2;261079516;261079516;-77
2022/04/11 21:34:13;;;;;;;;;6.00;6.00;;;;;;;;2;261080402;261080402;-76
2022/04/11 21:43:14;;;;;;;;;4.00;4.00;;;;;;;;2;261076459;261076459;-76
2022/04/11 21:51:29;;;;;;;;;5.50;5.50;;;;;;;;2;261079949;261079949;-78
2022/04/11 22:00:37;;;;;;;;;5.50;5.50;;;;;;;;2;261076526;261076526;-77
2022/04/11 22:08:55;;;;;;;;;4.00;4.00;;;;;;;;2;261079479;261079479;-80
2022/04/11 22:17:55;;;;;;;;;9.50;7.50;;;;;;;;2;261080648;261080648;-78
2022/04/11 22:26:11;;;;;;;;;2.50;2.50;;;;;;;;2;261083423;261083423;-77
2022/04/11 22:35:12;;;;;;;;;5.50;5.50;;;;;;;;2;261080078;261080078;-78
2022/04/11 22:43:28;;;;;;;;;18.00;6.00;;;;;;;;2;261081976;261081976;-77
2022/04/11 22:52:28;;;;;;;;;2.00;2.00;;;;;;;;2;261076007;261076007;-77
2022/04/11 23:00:44;;;;;;;;;9.00;0.50;;;;;;;;2;261081924;261081924;-77
2022/04/11 23:09:44;;;;;;;;;5.00;5.00;;;;;;;;2;261078573;261078573;-78
2022/04/11 23:18:00;;;;;;;;;4.00;4.00;;;;;;;;2;261083817;261083817;-77
2022/04/11 23:27:00;;;;;;;;;3.50;3.50;;;;;;;;2;261077573;261077573;-76
2022/04/11 23:35:15;;;;;;;;;3.50;3.50;;;;;;;;2;261079383;261079383;-77
2022/04/11 23:44:16;;;;;;;;;2.00;2.00;;;;;;;;2;261077340;261077340;-78
2022/04/11 23:52:31;;;;;;;;;1.00;1.00;;;;;;;;2;261076385;261076385;-76
